createdAt,value
2023-04-22T00:00:58.030Z,94579
2023-04-22T00:04:23.406Z,94578
2023-04-22T00:07:48.561Z,94582
2023-04-22T00:11:13.792Z,94583
2023-04-22T00:14:39.022Z,94574
2023-04-22T00:18:04.232Z,94573
2023-04-22T00:21:29.469Z,94579
2023-04-22T00:24:54.693Z,94568
2023-04-22T00:28:19.929Z,94567
2023-04-22T00:31:45.229Z,94562
2023-04-22T00:35:10.431Z,94559
2023-04-22T00:38:35.636Z,94565
2023-04-22T00:42:00.886Z,94562
2023-04-22T00:45:26.116Z,94562
2023-04-22T00:48:51.389Z,94565
2023-04-22T00:52:16.598Z,94562
2023-04-22T00:55:41.866Z,94561
2023-04-22T00:59:07.051Z,94563
2023-04-22T01:02:32.398Z,94560
2023-04-22T01:05:57.565Z,94558
2023-04-22T01:09:22.819Z,94559
2023-04-22T01:12:48.030Z,94554
2023-04-22T01:16:13.264Z,94562
2023-04-22T01:19:38.766Z,94563
2023-04-22T01:23:03.757Z,94560
2023-04-22T01:26:28.977Z,94562
2023-04-22T01:29:54.189Z,94560
2023-04-22T01:33:19.412Z,94568
2023-04-22T01:36:44.635Z,94573
2023-04-22T01:40:09.912Z,94566
2023-04-22T01:43:35.143Z,94571
2023-04-22T01:47:00.341Z,94566
2023-04-22T01:50:25.560Z,94570
2023-04-22T01:53:50.771Z,94569
2023-04-22T01:57:16.047Z,94570
2023-04-22T02:00:41.192Z,94570
2023-04-22T02:04:06.452Z,94566
2023-04-22T02:07:31.667Z,94563
2023-04-22T02:10:56.937Z,94565
2023-04-22T02:14:22.189Z,94563
2023-04-22T02:17:47.376Z,94564
2023-04-22T02:21:12.595Z,94565
2023-04-22T02:24:37.873Z,94566
2023-04-22T02:28:03.088Z,94565
2023-04-22T02:31:28.362Z,94561
2023-04-22T02:34:53.544Z,94562
2023-04-22T02:38:18.756Z,94564
2023-04-22T02:41:43.952Z,94561
2023-04-22T02:45:09.169Z,94562
2023-04-22T02:48:34.404Z,94561
2023-04-22T02:51:59.567Z,94559
2023-04-22T02:55:24.789Z,94560
2023-04-22T02:58:49.998Z,94551
2023-04-22T03:02:15.293Z,94550
2023-04-22T03:05:40.475Z,94541
2023-04-22T03:09:05.694Z,94548
2023-04-22T03:12:30.918Z,94547
2023-04-22T03:15:56.143Z,94548
2023-04-22T03:19:21.379Z,94548
2023-04-22T03:22:46.635Z,94547
2023-04-22T03:26:11.804Z,94553
2023-04-22T03:29:37.060Z,94550
2023-04-22T03:33:02.367Z,94548
2023-04-22T03:36:27.526Z,94553
2023-04-22T03:39:52.782Z,94551
2023-04-22T03:43:17.988Z,94554
2023-04-22T03:46:43.197Z,94552
2023-04-22T03:50:08.421Z,94549
2023-04-22T03:53:33.638Z,94555
2023-04-22T03:56:58.892Z,94552
2023-04-22T04:00:24.096Z,94559
2023-04-22T04:03:49.434Z,94556
2023-04-22T04:07:14.522Z,94559
2023-04-22T04:10:39.761Z,94553
2023-04-22T04:14:05.031Z,94559
2023-04-22T04:17:30.238Z,94556
2023-04-22T04:20:55.439Z,94557
2023-04-22T04:24:20.671Z,94557
2023-04-22T04:27:45.882Z,94561
2023-04-22T04:31:11.205Z,94559
2023-04-22T04:34:36.343Z,94560
2023-04-22T04:38:01.549Z,94557
2023-04-22T04:41:27.043Z,94558
2023-04-22T04:44:52.293Z,94564
2023-04-22T04:48:17.546Z,94562
2023-04-22T04:51:42.737Z,94555
2023-04-22T04:55:08.024Z,94553
2023-04-22T04:58:33.219Z,94551
2023-04-22T05:01:58.460Z,94559
2023-04-22T05:05:23.696Z,94559
2023-04-22T05:08:48.886Z,94566
2023-04-22T05:12:14.118Z,94572
2023-04-22T05:15:39.348Z,94575
2023-04-22T05:19:04.572Z,94571
2023-04-22T05:22:29.826Z,94575
2023-04-22T05:25:54.983Z,94575
2023-04-22T05:29:20.189Z,94577
2023-04-22T05:32:45.511Z,94576
2023-04-22T05:36:10.653Z,94578
2023-04-22T05:39:35.946Z,94577
2023-04-22T05:43:01.120Z,94581
2023-04-22T05:46:26.349Z,94581
2023-04-22T05:49:51.554Z,94573
2023-04-22T05:53:16.777Z,94576
2023-04-22T05:56:42.018Z,94574
2023-04-22T06:00:07.613Z,94576
2023-04-22T06:03:33.190Z,94578
2023-04-22T06:06:58.303Z,94567
2023-04-22T06:10:23.513Z,94568
2023-04-22T06:13:48.763Z,94574
2023-04-22T06:17:13.979Z,94565
2023-04-22T06:20:39.194Z,94566
2023-04-22T06:24:04.396Z,94568
2023-04-22T06:27:29.667Z,94565
2023-04-22T06:30:54.911Z,94569
2023-04-22T06:34:20.086Z,94568
2023-04-22T06:37:45.281Z,94570
2023-04-22T06:41:10.482Z,94566
2023-04-22T06:44:35.690Z,94572
2023-04-22T06:48:00.961Z,94571
2023-04-22T06:51:26.283Z,94576
2023-04-22T06:54:51.532Z,94574
2023-04-22T06:58:17.383Z,94581
2023-04-22T07:01:42.634Z,94582
2023-04-22T07:05:07.822Z,94581
2023-04-22T07:08:33.011Z,94584
2023-04-22T07:11:58.237Z,94577
2023-04-22T07:15:23.435Z,94576
2023-04-22T07:18:48.680Z,94576
2023-04-22T07:22:13.901Z,94569
2023-04-22T07:25:39.135Z,94563
2023-04-22T07:29:04.311Z,94560
2023-04-22T07:32:29.548Z,94557
2023-04-22T07:35:54.750Z,94558
2023-04-22T07:39:19.968Z,94555
2023-04-22T07:42:45.166Z,94552
2023-04-22T07:46:10.407Z,94552
2023-04-22T07:49:35.677Z,94552
2023-04-22T07:53:00.857Z,94559
2023-04-22T07:56:26.097Z,94557
2023-04-22T07:59:51.285Z,94553
2023-04-22T08:03:16.701Z,94553
2023-04-22T08:06:41.719Z,94544
2023-04-22T08:10:06.916Z,94543
2023-04-22T08:13:32.145Z,94541
2023-04-22T08:16:57.356Z,94535
2023-04-22T08:20:22.620Z,94544
2023-04-22T08:23:47.818Z,94533
2023-04-22T08:27:13.011Z,94527
2023-04-22T08:30:38.279Z,94530
2023-04-22T08:34:03.471Z,94535
2023-04-22T08:37:28.668Z,94536
2023-04-22T08:40:53.900Z,94534
2023-04-22T08:44:19.105Z,94539
2023-04-22T08:47:44.369Z,94532
2023-04-22T08:51:09.565Z,94538
2023-04-22T08:54:34.806Z,94538
2023-04-22T08:58:00.024Z,94537
2023-04-22T09:01:26.670Z,94533
2023-04-22T09:04:51.903Z,94535
2023-04-22T09:08:17.087Z,94530
2023-04-22T09:11:42.324Z,94527
2023-04-22T09:15:07.548Z,94526
2023-04-22T09:18:32.776Z,94523
2023-04-22T09:21:58.024Z,94525
2023-04-22T09:25:23.247Z,94513
2023-04-22T09:28:48.462Z,94514
2023-04-22T09:32:13.844Z,94518
2023-04-22T09:35:38.989Z,94509
2023-04-22T09:39:04.272Z,94509
2023-04-22T09:42:29.522Z,94511
2023-04-22T09:45:54.935Z,94511
2023-04-22T09:49:20.280Z,94507
2023-04-22T09:52:45.710Z,94507
2023-04-22T09:56:11.122Z,94496
2023-04-22T09:59:36.511Z,94497
2023-04-22T10:03:02.016Z,94493
2023-04-22T10:06:27.285Z,94489
2023-04-22T10:09:52.668Z,94488
2023-04-22T10:13:18.044Z,94482
2023-04-22T10:16:43.418Z,94487
2023-04-22T10:20:08.781Z,94479
2023-04-22T10:23:34.170Z,94477
2023-04-22T10:26:59.618Z,94475
2023-04-22T10:30:25.115Z,94475
2023-04-22T10:33:50.232Z,94479
2023-04-22T10:37:15.606Z,94478
2023-04-22T10:40:40.971Z,94477
2023-04-22T10:44:06.382Z,94478
2023-04-22T10:47:31.847Z,94470
2023-04-22T10:50:57.176Z,94470
2023-04-22T10:54:22.777Z,94459
2023-04-22T10:57:47.960Z,94452
2023-04-22T11:01:13.399Z,94454
2023-04-22T11:04:38.777Z,94446
2023-04-22T11:08:04.161Z,94447
2023-04-22T11:11:29.510Z,94447
2023-04-22T11:14:54.834Z,94447
2023-04-22T11:18:20.718Z,94450
2023-04-22T11:21:46.103Z,94446
2023-04-22T11:25:11.494Z,94443
2023-04-22T11:28:36.846Z,94443
2023-04-22T11:32:02.270Z,94445
2023-04-22T11:35:27.479Z,94440
2023-04-22T11:38:52.822Z,94433
2023-04-22T11:42:18.130Z,94434
2023-04-22T11:45:43.568Z,94434
2023-04-22T11:49:08.850Z,94436
2023-04-22T11:52:34.161Z,94436
2023-04-22T11:55:59.541Z,94426
2023-04-22T11:59:24.819Z,94416
2023-04-22T12:02:50.457Z,94422
2023-04-22T12:06:15.710Z,94420
2023-04-22T12:09:41.565Z,94414
2023-04-22T12:13:06.835Z,94422
2023-04-22T12:16:32.126Z,94418
2023-04-22T12:19:57.471Z,94408
2023-04-22T12:23:22.749Z,94408
2023-04-22T12:26:48.081Z,94408
2023-04-22T12:30:13.375Z,94403
2023-04-22T12:33:38.697Z,94394
2023-04-22T12:37:04.045Z,94394
2023-04-22T12:40:29.387Z,94393
2023-04-22T12:43:54.750Z,94395
2023-04-22T12:47:20.176Z,94391
2023-04-22T12:50:45.498Z,94388
2023-04-22T12:54:10.933Z,94384
2023-04-22T12:57:36.302Z,94377
2023-04-22T13:01:01.696Z,94376
2023-04-22T13:04:27.147Z,94369
2023-04-22T13:08:03.860Z,94369
2023-04-22T13:11:17.812Z,94366
2023-04-22T13:14:43.182Z,94369
2023-04-22T13:18:08.666Z,94371
2023-04-22T13:21:34.121Z,94363
2023-04-22T13:24:59.620Z,94352
2023-04-22T13:28:25.089Z,94350
2023-04-22T13:31:50.580Z,94346
2023-04-22T13:35:15.912Z,94341
2023-04-22T13:38:41.293Z,94336
2023-04-22T13:42:06.651Z,94338
2023-04-22T13:45:32.018Z,94335
2023-04-22T13:48:57.383Z,94328
2023-04-22T13:52:22.759Z,94332
2023-04-22T13:55:48.124Z,94323
2023-04-22T13:59:13.493Z,94319
2023-04-22T14:02:38.833Z,94318
2023-04-22T14:06:04.154Z,94316
2023-04-22T14:09:29.508Z,94313
2023-04-22T14:12:54.870Z,94308
2023-04-22T14:16:20.240Z,94305
2023-04-22T14:19:45.516Z,94297
2023-04-22T14:23:10.853Z,94290
2023-04-22T14:26:36.221Z,94294
2023-04-22T14:30:01.636Z,94294
2023-04-22T14:33:26.969Z,94293
2023-04-22T14:36:52.315Z,94285
2023-04-22T14:40:17.770Z,94282
2023-04-22T14:43:43.130Z,94282
2023-04-22T14:47:08.480Z,94280
2023-04-22T14:50:33.892Z,94275
2023-04-22T14:53:59.351Z,94274
2023-04-22T14:57:24.775Z,94268
2023-04-22T15:00:50.247Z,94272
2023-04-22T15:04:15.770Z,94265
2023-04-22T15:40:36.769Z,94256
2023-04-22T15:44:02.068Z,94265
2023-04-22T15:47:27.475Z,94266
2023-04-22T15:50:52.780Z,94268
2023-04-22T15:55:01.699Z,94261
2023-04-22T15:58:28.941Z,94266
2023-04-22T16:01:52.447Z,94263
2023-04-22T16:05:17.751Z,94260
2023-04-22T16:08:43.129Z,94260
2023-04-22T16:12:08.456Z,94250
2023-04-22T16:15:33.792Z,94248
2023-04-22T16:18:59.109Z,94243
2023-04-22T16:22:24.400Z,94245
2023-04-22T16:25:49.741Z,94247
2023-04-22T16:29:15.046Z,94243
2023-04-22T16:32:40.412Z,94246
2023-04-22T16:36:05.740Z,94241
2023-04-22T16:39:31.059Z,94247
2023-04-22T16:42:57.188Z,94246
2023-04-22T16:46:21.712Z,94241
2023-04-22T16:49:47.014Z,94245
2023-04-22T16:53:12.318Z,94234
2023-04-22T16:56:37.650Z,94233
2023-04-22T17:00:02.968Z,94229
2023-04-22T17:03:28.468Z,94227
2023-04-22T17:06:53.707Z,94227
2023-04-22T17:10:18.979Z,94232
2023-04-22T17:13:44.313Z,94228
2023-04-22T17:17:09.705Z,94223
2023-04-22T17:20:35.075Z,94229
2023-04-22T17:24:00.457Z,94220
2023-04-22T17:27:25.756Z,94225
2023-04-22T17:30:51.114Z,94217
2023-04-22T17:34:16.517Z,94220
2023-04-22T17:37:41.884Z,94220
2023-04-22T17:41:07.285Z,94218
2023-04-22T17:44:32.622Z,94215
2023-04-22T17:47:57.996Z,94214
2023-04-22T17:51:23.403Z,94216
2023-04-22T17:54:48.841Z,94215
2023-04-22T17:58:14.184Z,94217
2023-04-22T18:01:39.473Z,94218
2023-04-22T18:05:04.857Z,94219
2023-04-22T18:08:30.105Z,94214
2023-04-22T18:11:55.356Z,94221
2023-04-22T18:15:20.732Z,94223
2023-04-22T18:18:45.943Z,94226
2023-04-22T18:22:11.236Z,94227
2023-04-22T18:25:37.085Z,94229
2023-04-22T18:29:02.416Z,94229
2023-04-22T18:32:27.825Z,94231
2023-04-22T18:35:53.133Z,94233
2023-04-22T18:39:18.507Z,94234
2023-04-22T18:42:43.921Z,94241
2023-04-22T18:46:09.349Z,94246
2023-04-22T18:49:34.726Z,94246
2023-04-22T18:53:00.141Z,94253
2023-04-22T18:56:25.505Z,94253
2023-04-22T18:59:50.836Z,94259
2023-04-22T19:03:16.334Z,94262
2023-04-22T19:06:41.634Z,94262
2023-04-22T19:10:07.009Z,94258
2023-04-22T19:13:32.356Z,94260
2023-04-22T19:16:57.649Z,94265
2023-04-22T19:20:23.105Z,94261
2023-04-22T19:23:48.802Z,94261
2023-04-22T19:27:14.494Z,94264
2023-04-22T19:30:40.327Z,94262
2023-04-22T19:34:06.166Z,94258
2023-04-22T19:37:31.944Z,94253
2023-04-22T19:40:57.690Z,94260
2023-04-22T19:44:23.474Z,94257
2023-04-22T19:47:49.164Z,94261
2023-04-22T19:51:14.878Z,94260
2023-04-22T19:54:40.704Z,94255
2023-04-22T19:58:06.376Z,94255
2023-04-22T20:01:32.094Z,94245
2023-04-22T20:04:57.761Z,94250
2023-04-22T20:08:23.796Z,94249
2023-04-22T20:11:49.188Z,94252
2023-04-22T20:15:14.652Z,94250
2023-04-22T20:18:40.075Z,94248
2023-04-22T20:22:05.606Z,94243
2023-04-22T20:25:31.059Z,94236
2023-04-22T20:28:56.509Z,94239
2023-04-22T20:32:21.985Z,94241
2023-04-22T20:35:47.331Z,94239
2023-04-22T20:39:12.805Z,94243
2023-04-22T20:42:38.219Z,94239
2023-04-22T20:46:03.718Z,94247
2023-04-22T20:49:29.086Z,94243
2023-04-22T20:52:54.472Z,94245
2023-04-22T20:56:19.876Z,94242
2023-04-22T20:59:45.292Z,94240
2023-04-22T21:03:10.775Z,94235
2023-04-22T21:06:36.124Z,94234
2023-04-22T21:10:01.552Z,94241
2023-04-22T21:13:26.983Z,94242
2023-04-22T21:16:52.376Z,94240
2023-04-22T21:20:24.842Z,94244
2023-04-22T21:23:53.090Z,94243
2023-04-22T21:27:18.482Z,94248
2023-04-22T21:30:43.919Z,94249
2023-04-22T21:34:09.380Z,94253
2023-04-22T21:37:34.797Z,94248
2023-04-22T21:41:00.245Z,94249
2023-04-22T21:44:25.651Z,94250
2023-04-22T21:47:51.086Z,94258
2023-04-22T21:51:16.513Z,94264
2023-04-22T21:54:42.163Z,94259
2023-04-22T21:58:07.428Z,94264
2023-04-22T22:01:32.875Z,94271
2023-04-22T22:04:58.230Z,94269
2023-04-22T22:08:23.637Z,94262
2023-04-22T22:11:49.125Z,94266
2023-04-22T22:15:14.555Z,94273
2023-04-22T22:18:40.001Z,94273
2023-04-22T22:22:05.470Z,94270
2023-04-22T22:25:31.646Z,94273
2023-04-22T22:28:57.059Z,94268
2023-04-22T22:32:22.537Z,94269
2023-04-22T22:35:47.942Z,94271
2023-04-22T22:39:13.369Z,94268
2023-04-22T22:42:38.839Z,94272
2023-04-22T22:46:04.380Z,94270
2023-04-22T22:49:29.722Z,94274
2023-04-22T22:52:55.135Z,94268
2023-04-22T22:56:20.549Z,94273
2023-04-22T22:59:46.070Z,94282
2023-04-22T23:03:11.658Z,94271
2023-04-22T23:06:36.938Z,94270
2023-04-22T23:10:02.366Z,94269
2023-04-22T23:13:27.830Z,94267
2023-04-22T23:16:53.216Z,94267
2023-04-22T23:20:18.501Z,94264
2023-04-22T23:23:43.831Z,94262
2023-04-22T23:27:09.042Z,94266
2023-04-22T23:30:34.312Z,94265
2023-04-22T23:33:59.575Z,94259
2023-04-22T23:37:24.872Z,94254
2023-04-22T23:40:50.151Z,94251
2023-04-22T23:44:15.387Z,94244
2023-04-22T23:47:40.674Z,94243
2023-04-22T23:51:05.909Z,94239
2023-04-22T23:54:31.227Z,94238
2023-04-22T23:57:56.516Z,94241
